Lebam, WA

12:31 AM PDT on September 03, 2015 (GMT -0700)
Menlo | | Change Station
CLOSE
Current Station
Personal Weather Station
Location: Raymond, WA
Elevation: 10 ft
Nearby Weather Stations

Elev 10 ft 46.66 °N, 123.67 °W | Updated 3 minutes ago

Clear
Clear
47.5 °F
Feels Like 48 °F
N
0.0
Wind Variable Wind from SE

Today
High -- | Low -- °F
--% Chance of Precip.
Yesterday
High -- | Low -- °F
Precip. -- in
6:36 AM 7:49 PM
Waning Gibbous, 73% visible
Pressure 29.98 in
Visibility 10.0 miles
Clouds Few 500 ft
Windchill 48 °F
Dew Point 47 °F
Humidity 99%
Rainfall 0.00 in
Snow Depth Not available.
UV 0 out of 12
Pollen .50 out of 12
Air Quality Not available.
Flu Activity Not available.
METAR KCLS 030655Z AUTO 20005KT 10SM FEW005 10/10 A2998 RMK A01
Pressure 29.98 in
Visibility 10.0 miles
Clouds Few 500 ft
Windchill 48 °F
Dew Point 47 °F
Humidity 99%
Rainfall 0.00 in
Snow Depth Not available.
UV 0 out of 12
Pollen .50 out of 12
Air Quality Not available.
Flu Activity Not available.
METAR KCLS 030655Z AUTO 20005KT 10SM FEW005 10/10 A2998 RMK A01

10-Day Weather Forecast

×

Almanac

Astronomy

Sep. 03, 2015 Rise Set
Actual Time
Civil Twilight
Nautical Twilight
Astronomical Twilight
Moon
Length of Visible Light
Length of Day
Tomorrow will be .
, % of the Moon is Illuminated

Today's Extremes

State Highs State Lows

Community

WunderPhotos

Upload Photos

1,851,919 photos uploaded!

WunderBlogs® & News

Nearby

Air Quality

  Air Quality AQ Index Pollutant
Not available.

Snow Depth

Station Depth Elevation

Earthquake Activity

City Distance Mag. Time & Date
Minimum magnitude displayed is 2.5.

Coastal Water Temperatures

Place Temperature

Stations

Nearby Weather Stations

Station Location Temp. Windchill Dew Point Humidity Wind Precip. Elev Updated Type